Terminal Aerodrome Forecast
Issued by NWS St Louis, MO

Home | Current Version | Previous Version | Text Only | Print | Product List | Glossary On
Versions: 1 2 3 4 5 6 7 8 9 10 11 12 13 14 15 16 17 18 19 20 21 22 23 24 25 26 27
069
FTUS43 KLSX 202242 AAA
TAFCOU
TAF AMD
KCOU 202242Z 2023/2118 20013G22KT P6SM -SHRA VCTS SCT030CB OVC070
      TEMPO 2023/2024 4SM -SHRA BKN030
     FM210000 22009KT P6SM -SHRA OVC060
     FM210200 21007KT P6SM VCSH OVC080
     FM210700 23005KT P6SM OVC080
     FM211100 29004KT P6SM BKN040
     FM211300 31005KT P6SM BKN015
     FM211400 33005KT P6SM SCT015=

USA.gov is the U.S. government's official web portal to all federal, state and local government web resources and services.